CheckWX is a tool to help pilots better visualize weather data.  It is not intended as a substitute for an official pre-flight weather briefing.

18:24:51 UTC

KSMF TAF
Sacramento International Airport
Sacramento, California, USA
KSMF 201738Z 2018/2118 34011KT P6SM SKC FM210300 VRB04KT P6SM SKC

Sep-20@
18:00 UTC

Sep-20 @ 18:00 UTC

Sep-21@
03:00 UTC

Sep-21 @ 03:00 UTC

KSMF 201738Z 2018/2118 34011KT P6SM SKC
Wind
  • 340° at 11 KTS
Cloud Levels
  • Clear skies

Sep-21@
03:00 UTC

Sep-21 @ 03:00 UTC

Sep-21@
18:00 UTC

Sep-21 @ 18:00 UTC

FM210300 VRB04KT P6SM SKC

From

From Standard forecast or significant change

Wind
  • Variable at 4 KTS
Cloud Levels
  • Clear skies